createdAt,value
2018-04-12T00:00:37.004Z,46.57
2018-04-12T00:03:07.100Z,51.33
2018-04-12T00:05:35.224Z,47.53
2018-04-12T00:08:03.303Z,49.17
2018-04-12T00:10:32.031Z,47.20
2018-04-12T00:13:00.248Z,48.67
2018-04-12T00:15:28.392Z,47.40
2018-04-12T00:17:56.493Z,47.03
2018-04-12T00:20:24.651Z,47.00
2018-04-12T00:22:52.751Z,44.70
2018-04-12T00:25:20.848Z,46.47
2018-04-12T00:27:49.616Z,46.17
2018-04-12T00:30:17.947Z,47.87
2018-04-12T00:32:46.627Z,48.97
2018-04-12T00:35:14.715Z,47.47
2018-04-12T00:37:42.803Z,48.50
2018-04-12T00:40:11.701Z,48.93
2018-04-12T00:42:39.811Z,49.23
2018-04-12T00:45:07.908Z,50.20
2018-04-12T00:47:36.327Z,51.53
2018-04-12T00:50:04.651Z,52.57
2018-04-12T00:52:37.681Z,53.23
2018-04-12T00:55:05.797Z,52.53
2018-04-12T00:57:35.679Z,52.83
2018-04-12T01:00:03.799Z,52.83
2018-04-12T01:02:32.327Z,53.57
2018-04-12T01:05:00.433Z,52.83
2018-04-12T01:07:29.311Z,50.60
2018-04-12T01:09:58.281Z,51.43
2018-04-12T01:12:27.298Z,50.50
2018-04-12T01:14:57.120Z,48.60
2018-04-12T01:17:25.940Z,48.37
2018-04-12T01:19:54.931Z,47.43
2018-04-12T01:22:23.823Z,46.20
2018-04-12T01:24:51.913Z,46.53
2018-04-12T01:27:20.220Z,45.10
2018-04-12T01:29:48.303Z,46.53
2018-04-12T01:32:16.430Z,46.90
2018-04-12T01:34:44.534Z,44.30
2018-04-12T01:37:12.697Z,45.30
2018-04-12T01:39:41.470Z,45.33
2018-04-12T01:42:09.554Z,43.83
2018-04-12T01:44:38.512Z,45.80
2018-04-12T01:47:07.396Z,43.33
2018-04-12T01:49:35.642Z,41.87
2018-04-12T01:52:04.132Z,41.63
2018-04-12T01:54:32.246Z,42.93
2018-04-12T01:57:01.482Z,42.97
2018-04-12T01:59:29.697Z,45.37
2018-04-12T02:01:58.054Z,42.30
2018-04-12T02:04:26.266Z,44.30
2018-04-12T02:06:54.866Z,40.17
2018-04-12T02:09:22.992Z,42.63
2018-04-12T02:11:51.146Z,42.83
2018-04-12T02:14:19.243Z,43.33
2018-04-12T02:16:47.461Z,42.30
2018-04-12T02:19:16.776Z,40.33
2018-04-12T02:21:44.879Z,41.97
2018-04-12T02:24:12.996Z,42.20
2018-04-12T02:26:41.111Z,40.03
2018-04-12T02:29:09.195Z,41.30
2018-04-12T02:31:37.319Z,41.27
2018-04-12T02:34:05.415Z,41.23
2018-04-12T02:36:39.303Z,40.93
2018-04-12T02:39:07.386Z,39.50
2018-04-12T02:41:35.503Z,41.23
2018-04-12T02:44:03.651Z,40.60
2018-04-12T02:46:32.459Z,41.33
2018-04-12T02:49:00.567Z,40.40
2018-04-12T02:51:28.739Z,39.57
2018-04-12T02:53:56.854Z,38.13
2018-04-12T02:56:24.912Z,39.33
2018-04-12T02:58:53.895Z,40.43
2018-04-12T03:01:21.982Z,40.10
2018-04-12T03:03:50.414Z,40.60
2018-04-12T03:16:04.420Z,37.50
2018-04-12T03:18:32.560Z,39.07
2018-04-12T03:21:02.679Z,38.80
2018-04-12T03:23:30.774Z,38.03
2018-04-12T03:25:58.881Z,38.63
2018-04-12T03:41:28.067Z,38.87
2018-04-12T03:43:58.007Z,37.43
2018-04-12T03:46:27.330Z,38.03
2018-04-12T03:48:55.423Z,39.77
2018-04-12T03:51:23.775Z,38.90
2018-04-12T03:53:51.847Z,38.07
2018-04-12T03:56:19.955Z,36.97
2018-04-12T03:58:48.861Z,37.77
2018-04-12T04:01:16.967Z,37.67
2018-04-12T04:03:45.052Z,38.30
2018-04-12T04:06:13.157Z,36.07
2018-04-12T04:08:41.534Z,37.13
2018-04-12T04:11:09.612Z,36.17
2018-04-12T04:13:38.341Z,36.87
2018-04-12T04:16:19.320Z,36.77
2018-04-12T04:18:59.125Z,37.47
2018-04-12T04:21:27.226Z,36.10
2018-04-12T04:23:56.949Z,35.23
2018-04-12T04:26:25.380Z,37.23
2018-04-12T04:28:53.444Z,36.00
2018-04-12T04:31:21.554Z,36.87
2018-04-12T04:33:51.378Z,36.20
2018-04-12T04:38:51.476Z,35.70
2018-04-12T04:41:20.303Z,35.13
2018-04-12T04:43:48.534Z,35.60
2018-04-12T04:46:16.626Z,36.87
2018-04-12T04:48:45.061Z,36.27
2018-04-12T04:51:13.430Z,35.53
2018-04-12T04:53:41.532Z,37.57
2018-04-12T04:56:09.635Z,34.37
2018-04-12T04:58:37.752Z,37.73
2018-04-12T05:01:05.843Z,36.87
2018-04-12T05:03:33.990Z,34.37
2018-04-12T05:06:03.310Z,36.42
2018-04-12T05:08:31.754Z,37.85
2018-04-12T05:11:00.719Z,36.13
2018-04-12T05:13:29.132Z,37.13
2018-04-12T05:15:57.318Z,36.03
2018-04-12T05:18:26.503Z,35.43
2018-04-12T05:20:54.556Z,37.97
2018-04-12T05:23:22.679Z,37.47
2018-04-12T05:25:50.835Z,39.00
2018-04-12T05:41:18.955Z,37.08
2018-04-12T05:43:47.405Z,38.28
2018-04-12T05:46:15.512Z,36.28
2018-04-12T05:48:43.895Z,36.70
2018-04-12T05:51:12.516Z,35.40
2018-04-12T05:53:41.467Z,36.38
2018-04-12T05:56:09.579Z,36.93
2018-04-12T05:58:37.911Z,38.30
2018-04-12T06:01:07.647Z,35.30
2018-04-12T06:03:35.742Z,36.85
2018-04-12T06:06:03.855Z,36.60
2018-04-12T06:08:32.819Z,36.10
2018-04-12T06:11:00.992Z,34.28
2018-04-12T06:13:29.731Z,34.28
2018-04-12T06:28:57.862Z,34.53
2018-04-12T06:31:26.958Z,35.22
2018-04-12T06:33:55.100Z,37.70
2018-04-12T06:36:23.247Z,37.03
2018-04-12T06:38:51.615Z,35.65
2018-04-12T06:41:19.744Z,35.92
2018-04-12T06:43:48.134Z,33.47
2018-04-12T06:46:16.259Z,35.33
2018-04-12T06:48:44.400Z,35.05
2018-04-12T07:04:12.528Z,36.67
2018-04-12T07:06:45.957Z,36.10
2018-04-12T07:09:14.089Z,37.57
2018-04-12T07:11:42.196Z,35.00
2018-04-12T07:14:10.321Z,37.25
2018-04-12T07:16:38.444Z,36.63
2018-04-12T07:19:06.546Z,37.27
2018-04-12T07:21:34.640Z,37.10
2018-04-12T07:24:02.759Z,37.83
2018-04-12T07:29:01.715Z,38.03
2018-04-12T07:31:29.844Z,39.33
2018-04-12T07:33:57.939Z,38.13
2018-04-12T07:36:27.030Z,37.80
2018-04-12T07:38:55.128Z,35.50
2018-04-12T07:41:23.221Z,36.40
2018-04-12T07:43:51.356Z,38.30
2018-04-12T07:46:19.429Z,37.70
2018-04-12T07:48:47.564Z,35.63
2018-04-12T07:51:15.684Z,36.97
2018-04-12T07:53:44.114Z,36.30
2018-04-12T07:56:13.338Z,37.87
2018-04-12T07:58:41.758Z,36.33
2018-04-12T08:01:09.866Z,39.50
2018-04-12T08:03:38.413Z,38.33
2018-04-12T08:06:06.505Z,38.50
2018-04-12T08:08:34.609Z,38.50
2018-04-12T08:11:03.082Z,38.20
2018-04-12T08:13:31.173Z,35.00
2018-04-12T08:15:59.259Z,34.47
2018-04-12T08:18:27.369Z,35.80
2018-04-12T08:20:55.465Z,36.40
2018-04-12T08:23:23.563Z,34.97
2018-04-12T08:25:51.667Z,35.95
2018-04-12T08:28:20.091Z,33.67
2018-04-12T08:30:48.215Z,38.57
2018-04-12T08:33:16.323Z,35.40
2018-04-12T08:35:44.425Z,36.63
2018-04-12T08:38:12.539Z,37.88
2018-04-12T08:40:40.717Z,37.88
2018-04-12T08:43:08.829Z,39.70
2018-04-12T08:45:36.923Z,37.03
2018-04-12T08:48:05.015Z,37.43
2018-04-12T08:50:33.158Z,38.17
2018-04-12T08:53:01.269Z,38.07
2018-04-12T08:55:29.367Z,36.73
2018-04-12T08:57:58.214Z,34.13
2018-04-12T09:00:26.330Z,33.17
2018-04-12T09:02:54.412Z,36.37
2018-04-12T09:05:22.538Z,35.90
2018-04-12T09:07:50.620Z,36.07
2018-04-12T09:10:18.742Z,37.60
2018-04-12T09:12:46.862Z,38.63
2018-04-12T09:15:15.905Z,36.57
2018-04-12T09:17:44.053Z,37.93
2018-04-12T09:20:12.266Z,36.07
2018-04-12T09:22:41.110Z,39.13
2018-04-12T09:25:09.236Z,36.17
2018-04-12T09:27:37.326Z,39.83
2018-04-12T09:30:06.420Z,38.10
2018-04-12T09:32:35.453Z,37.97
2018-04-12T09:35:03.577Z,40.03
2018-04-12T09:37:32.594Z,38.60
2018-04-12T09:40:00.712Z,37.93
2018-04-12T09:42:29.540Z,39.00
2018-04-12T09:44:57.633Z,37.00
2018-04-12T09:47:25.728Z,37.70
2018-04-12T09:49:54.074Z,38.87
2018-04-12T09:52:22.167Z,38.47
2018-04-12T09:54:51.159Z,38.40
2018-04-12T09:57:19.574Z,40.63
2018-04-12T09:59:47.695Z,41.03
2018-04-12T10:15:15.801Z,39.00
2018-04-12T10:17:44.200Z,41.37
2018-04-12T10:20:12.279Z,38.80
2018-04-12T10:22:40.399Z,39.60
2018-04-12T10:25:08.515Z,39.43
2018-04-12T10:27:36.618Z,40.53
2018-04-12T10:30:04.690Z,39.50
2018-04-12T10:32:32.854Z,40.57
2018-04-12T10:35:00.950Z,41.97
2018-04-12T10:37:29.045Z,40.60
2018-04-12T10:39:57.891Z,38.70
2018-04-12T10:42:27.333Z,39.80
2018-04-12T10:44:55.440Z,40.27
2018-04-12T10:47:23.800Z,40.30
2018-04-12T10:49:51.887Z,41.20
2018-04-12T10:52:20.970Z,40.90
2018-04-12T10:54:49.087Z,38.57
2018-04-12T10:57:18.193Z,40.70
2018-04-12T10:59:46.308Z,40.77
2018-04-12T11:02:14.666Z,37.07
2018-04-12T11:04:42.760Z,40.50
2018-04-12T11:07:11.513Z,41.70
2018-04-12T11:09:39.623Z,39.10
2018-04-12T11:12:07.745Z,40.33
2018-04-12T11:14:35.836Z,41.23
2018-04-12T11:17:03.956Z,38.00
2018-04-12T11:19:32.860Z,38.57
2018-04-12T11:22:01.904Z,39.03
2018-04-12T11:24:30.095Z,40.63
2018-04-12T11:26:58.486Z,39.53
2018-04-12T11:29:27.170Z,39.90
2018-04-12T11:31:55.260Z,38.97
2018-04-12T11:34:23.389Z,39.03
2018-04-12T11:36:52.254Z,39.80
2018-04-12T11:39:20.351Z,38.57
2018-04-12T11:41:49.218Z,38.00
2018-04-12T11:44:17.347Z,40.27
2018-04-12T11:46:45.493Z,38.47
2018-04-12T11:49:14.168Z,40.43
2018-04-12T11:51:42.397Z,39.43
2018-04-12T11:54:10.497Z,37.70
2018-04-12T11:56:38.610Z,39.80
2018-04-12T11:59:07.188Z,38.80
2018-04-12T12:01:35.361Z,38.53
2018-04-12T12:04:03.548Z,40.70
2018-04-12T12:06:31.655Z,39.63
2018-04-12T12:08:59.787Z,39.43
2018-04-12T12:11:27.883Z,40.47
2018-04-12T12:13:56.029Z,37.90
2018-04-12T12:16:24.187Z,38.97
2018-04-12T12:18:52.290Z,37.83
2018-04-12T12:21:20.390Z,37.97
2018-04-12T12:23:48.626Z,39.17
2018-04-12T12:26:16.649Z,39.13
2018-04-12T12:28:44.803Z,38.57
2018-04-12T12:31:12.944Z,40.17
2018-04-12T12:33:41.439Z,39.63
2018-04-12T12:36:09.555Z,38.73
2018-04-12T12:38:38.451Z,38.43
2018-04-12T12:41:06.639Z,42.67
2018-04-12T12:43:34.784Z,42.67
2018-04-12T12:46:02.894Z,41.23
2018-04-12T12:48:31.579Z,44.50
2018-04-12T12:50:59.704Z,42.73
2018-04-12T12:53:28.410Z,45.20
2018-04-12T12:55:56.522Z,42.27
2018-04-12T12:58:25.947Z,44.00
2018-04-12T13:00:54.047Z,43.90
2018-04-12T13:03:22.151Z,45.77
2018-04-12T13:05:50.273Z,45.03
2018-04-12T13:08:18.369Z,44.37
2018-04-12T13:10:47.470Z,46.33
2018-04-12T13:13:15.589Z,47.03
2018-04-12T13:28:43.726Z,44.57
2018-04-12T13:31:11.840Z,47.57
2018-04-12T13:33:40.549Z,46.57
2018-04-12T13:36:08.639Z,46.60
2018-04-12T13:38:36.760Z,46.60
2018-04-12T13:41:04.954Z,46.53
2018-04-12T13:43:33.044Z,47.67
2018-04-12T13:46:01.509Z,46.43
2018-04-12T13:48:29.605Z,45.53
2018-04-12T13:50:57.701Z,47.13
2018-04-12T13:53:26.399Z,44.37
2018-04-12T13:55:54.524Z,46.23
2018-04-12T13:58:23.182Z,46.33
2018-04-12T14:00:52.164Z,45.87
2018-04-12T14:03:20.268Z,45.30
2018-04-12T14:05:50.112Z,47.23
2018-04-12T14:08:18.596Z,46.20
2018-04-12T14:10:47.020Z,47.43
2018-04-12T14:13:15.094Z,48.10
2018-04-12T14:15:43.872Z,49.73
2018-04-12T14:18:11.963Z,47.50
2018-04-12T14:20:40.570Z,49.67
2018-04-12T14:23:08.647Z,50.13
2018-04-12T14:25:36.741Z,48.03
2018-04-12T14:28:04.864Z,47.67
2018-04-12T14:30:33.973Z,50.47
2018-04-12T14:33:02.098Z,50.37
2018-04-12T14:35:30.172Z,50.37
2018-04-12T14:37:58.375Z,50.37
2018-04-12T14:40:26.474Z,55.27
2018-04-12T14:42:54.572Z,49.10
2018-04-12T14:45:23.636Z,48.07
2018-04-12T14:47:51.734Z,49.43
2018-04-12T14:50:19.835Z,50.67
2018-04-12T14:52:47.983Z,50.00
2018-04-12T14:55:16.071Z,49.47
2018-04-12T14:57:44.168Z,50.17
2018-04-12T15:00:13.471Z,51.30
2018-04-12T15:02:41.588Z,47.40
2018-04-12T15:05:09.685Z,48.20
2018-04-12T15:07:37.790Z,48.70
2018-04-12T15:10:06.117Z,46.47
2018-04-12T15:25:34.256Z,42.57
2018-04-12T15:28:02.352Z,43.67
2018-04-12T15:30:30.499Z,44.17
2018-04-12T15:33:04.066Z,45.17
2018-04-12T15:35:37.753Z,43.20
2018-04-12T15:38:11.408Z,40.10
2018-04-12T15:40:44.896Z,40.77
2018-04-12T15:43:18.476Z,40.07
2018-04-12T15:45:52.526Z,40.50
2018-04-12T15:48:26.354Z,41.10
2018-04-12T15:51:00.069Z,38.37
2018-04-12T15:53:33.980Z,39.50
2018-04-12T15:56:07.583Z,40.23
2018-04-12T15:58:41.100Z,40.67
2018-04-12T16:01:14.795Z,40.73
2018-04-12T16:03:48.347Z,42.63
2018-04-12T16:16:07.611Z,37.60
2018-04-12T16:18:41.409Z,36.37
2018-04-12T16:21:15.924Z,39.30
2018-04-12T16:23:50.385Z,39.17
2018-04-12T16:26:24.171Z,38.83
2018-04-12T16:28:57.899Z,35.37
2018-04-12T16:31:32.212Z,38.03
2018-04-12T16:34:05.743Z,36.90
2018-04-12T16:36:40.142Z,38.37
2018-04-12T16:39:13.683Z,36.63
2018-04-12T16:41:48.176Z,36.77
2018-04-12T16:44:21.896Z,36.10
2018-04-12T16:46:55.463Z,35.13
2018-04-12T16:49:29.074Z,38.17
2018-04-12T16:52:02.679Z,37.37
2018-04-12T16:54:36.386Z,38.60
2018-04-12T16:57:09.999Z,35.13
2018-04-12T16:59:43.559Z,35.70
2018-04-12T17:02:18.038Z,38.40
2018-04-12T17:04:52.085Z,36.47
2018-04-12T17:07:25.826Z,35.83
2018-04-12T17:09:59.459Z,34.47
2018-04-12T17:12:33.421Z,36.03
2018-04-12T17:15:07.336Z,35.30
2018-04-12T17:17:40.927Z,34.27
2018-04-12T17:20:14.466Z,36.47
2018-04-12T17:22:48.320Z,35.13
2018-04-12T17:25:21.804Z,36.90
2018-04-12T17:27:55.464Z,37.30
2018-04-12T17:30:29.091Z,35.20
2018-04-12T17:33:02.736Z,35.17
2018-04-12T17:35:36.319Z,34.93
2018-04-12T17:38:10.281Z,36.17
2018-04-12T17:40:44.711Z,35.37
2018-04-12T17:43:18.845Z,34.07
2018-04-12T17:45:52.487Z,35.63
2018-04-12T17:48:25.961Z,35.87
2018-04-12T17:50:59.497Z,37.07
2018-04-12T17:53:33.235Z,35.47
2018-04-12T17:56:07.028Z,37.63
2018-04-12T17:58:40.975Z,35.70
2018-04-12T18:01:14.713Z,34.90
2018-04-12T18:03:48.322Z,37.03
2018-04-12T18:06:23.375Z,35.03
2018-04-12T18:08:57.435Z,36.27
2018-04-12T18:11:31.645Z,34.97
2018-04-12T18:14:05.575Z,34.90
2018-04-12T18:16:39.797Z,34.33
2018-04-12T18:19:13.381Z,34.63
2018-04-12T18:21:47.767Z,33.40
2018-04-12T18:24:22.496Z,33.53
2018-04-12T18:26:56.336Z,35.53
2018-04-12T18:29:29.839Z,33.53
2018-04-12T18:32:03.391Z,32.73
2018-04-12T18:34:37.004Z,33.90
2018-04-12T18:37:10.708Z,35.73
2018-04-12T18:39:45.295Z,35.00
2018-04-12T18:42:19.047Z,35.37
2018-04-12T18:44:52.676Z,36.83
2018-04-12T18:47:26.423Z,34.57
2018-04-12T18:50:00.004Z,35.97
2018-04-12T18:52:33.752Z,33.20
2018-04-12T18:55:07.610Z,33.87
2018-04-12T18:57:41.111Z,34.60
2018-04-12T19:00:14.675Z,34.47
2018-04-12T19:02:48.422Z,33.60
2018-04-12T19:05:21.986Z,34.93
2018-04-12T19:07:55.609Z,33.03
2018-04-12T19:10:29.911Z,35.00
2018-04-12T19:13:03.676Z,34.93
2018-04-12T19:15:37.383Z,34.27
2018-04-12T19:18:11.035Z,35.20
2018-04-12T19:20:44.788Z,35.63
2018-04-12T19:23:18.582Z,36.87
2018-04-12T19:25:52.197Z,35.03
2018-04-12T19:28:25.868Z,36.40
2018-04-12T19:30:59.731Z,36.03
2018-04-12T19:33:35.067Z,35.43
2018-04-12T19:36:08.582Z,36.23
2018-04-12T19:38:42.301Z,34.43
2018-04-12T19:41:15.958Z,35.23
2018-04-12T19:43:49.633Z,36.70
2018-04-12T19:46:23.204Z,36.80
2018-04-12T19:48:56.927Z,34.63
2018-04-12T19:51:30.475Z,35.93
2018-04-12T19:54:04.129Z,36.50
2018-04-12T19:56:37.675Z,37.00
2018-04-12T19:59:11.488Z,35.67
2018-04-12T20:01:45.102Z,35.57
2018-04-12T20:04:19.691Z,36.23
2018-04-12T20:06:53.471Z,34.73
2018-04-12T20:09:27.103Z,37.77
2018-04-12T20:12:00.649Z,36.30
2018-04-12T20:14:34.353Z,35.00
2018-04-12T20:17:09.742Z,36.27
2018-04-12T20:19:43.698Z,37.67
2018-04-12T20:22:17.333Z,36.13
2018-04-12T20:24:51.051Z,37.00
2018-04-12T20:27:24.575Z,36.47
2018-04-12T20:29:58.171Z,38.53
2018-04-12T20:32:31.754Z,38.87
2018-04-12T20:35:05.343Z,37.83
2018-04-12T20:37:38.884Z,36.43
2018-04-12T20:40:12.395Z,36.87
2018-04-12T20:42:46.444Z,38.13
2018-04-12T20:45:20.182Z,37.80
2018-04-12T20:47:53.886Z,37.73
2018-04-12T20:50:27.422Z,37.13
2018-04-12T20:53:02.171Z,35.97
2018-04-12T20:55:35.855Z,38.20
2018-04-12T20:58:09.398Z,37.27
2018-04-12T21:00:42.882Z,38.20
2018-04-12T21:03:16.432Z,36.67
2018-04-12T21:05:50.008Z,37.83
2018-04-12T21:08:23.585Z,37.97
2018-04-12T21:10:57.207Z,38.67
2018-04-12T21:13:30.858Z,37.80
2018-04-12T21:16:05.479Z,37.50
2018-04-12T21:18:40.240Z,38.23
2018-04-12T21:21:14.014Z,38.87
2018-04-12T21:23:48.331Z,37.13
2018-04-12T21:26:22.082Z,40.23
2018-04-12T21:28:55.828Z,39.70
2018-04-12T21:31:29.335Z,39.03
2018-04-12T21:34:02.935Z,38.50
2018-04-12T21:36:36.511Z,38.93
2018-04-12T21:39:10.247Z,39.63
2018-04-12T21:41:43.807Z,40.27
2018-04-12T21:44:17.428Z,41.13
2018-04-12T21:46:51.314Z,42.23
2018-04-12T21:49:24.974Z,40.93
2018-04-12T21:51:58.746Z,39.60
2018-04-12T21:54:32.657Z,41.40
2018-04-12T21:57:07.371Z,42.53
2018-04-12T21:59:40.982Z,41.57
2018-04-12T22:02:14.705Z,42.30
2018-04-12T22:04:48.494Z,40.17
2018-04-12T22:07:22.146Z,40.13
2018-04-12T22:09:55.978Z,43.63
2018-04-12T22:12:29.491Z,42.67
2018-04-12T22:15:03.115Z,43.23
2018-04-12T22:17:36.906Z,44.70
2018-04-12T22:20:10.598Z,43.23
2018-04-12T22:22:44.146Z,43.77
2018-04-12T22:25:17.837Z,44.07
2018-04-12T22:27:51.475Z,45.67
2018-04-12T22:30:25.092Z,45.27
2018-04-12T22:32:58.670Z,46.97
2018-04-12T22:35:32.366Z,46.17
2018-04-12T22:38:06.901Z,45.10
2018-04-12T22:40:40.423Z,45.83
2018-04-12T22:43:14.028Z,43.70
2018-04-12T22:45:48.763Z,46.67
2018-04-12T22:48:22.520Z,46.43
2018-04-12T22:50:59.010Z,43.80
2018-04-12T22:53:33.585Z,42.43
2018-04-12T22:56:07.825Z,44.47
2018-04-12T22:58:41.767Z,43.73
2018-04-12T23:01:16.269Z,46.00
2018-04-12T23:03:50.040Z,44.00
2018-04-12T23:06:23.775Z,45.77
2018-04-12T23:08:57.345Z,45.27
2018-04-12T23:11:31.095Z,45.17
2018-04-12T23:14:04.693Z,46.67
2018-04-12T23:16:38.338Z,47.90
2018-04-12T23:19:12.106Z,48.93
2018-04-12T23:21:45.892Z,50.37
2018-04-12T23:24:19.483Z,52.30
2018-04-12T23:26:53.261Z,52.80
2018-04-12T23:29:27.829Z,54.87
2018-04-12T23:32:01.495Z,53.00
2018-04-12T23:34:35.155Z,53.03
2018-04-12T23:37:08.721Z,54.10
2018-04-12T23:39:42.365Z,52.07
2018-04-12T23:42:16.885Z,52.03
2018-04-12T23:44:50.368Z,49.97
2018-04-12T23:47:24.954Z,49.13
2018-04-12T23:49:58.603Z,49.70
2018-04-12T23:52:32.178Z,51.47
2018-04-12T23:55:07.267Z,48.50
2018-04-12T23:57:41.198Z,51.20
